Cetus Star — 9HYP7 — position and weather

sailwx.info

Track history (hours):
 
Tides and Currents Weather Stations Pressure Air Temp Water Temp Dewpoint Dewpoint Depression Visibility Wind Speed Wind Dir Waves Ship Positions

Cetus Star

Last reported at 2018-Feb-14 07:27 UTC. Time now 2018-Feb-23 08:58 UTC.
Position S 29°10' E 032°26'.
Warning: this ship's position is 9 days out of date.

Length 175 m; draft 9.9 m.

Type: Cargo ship. MMSI: 215720000.

Date/timePositionNaut miles runAvg speedWind from/ knotsBaromVisibWave heightAir tempDewpointWater temp
2018-Feb-14 07:27S 29°10' E 032°26'4 9.3
2018-Feb-14 06:59S 29°14' E 032°24'13 9.5
2018-Feb-14 05:40S 29°24' E 032°16'2 9.4
2018-Feb-14 05:24S 29°26' E 032°15'4 9.3
2018-Feb-14 05:00S 29°30' E 032°13'5 9.1
2018-Feb-14 04:29S 29°34' E 032°10'4 8.9
2018-Feb-14 04:00S 29°38' E 032°07'5 8.8
2018-Feb-14 03:27S 29°42' E 032°04'5 8.8
2018-Feb-14 02:55S 29°46' E 032°01'4 8.8
2018-Feb-14 02:30S 29°49' E 031°59'4 8.8
2018-Feb-14 02:00S 29°52' E 031°57'4 8.7
2018-Feb-14 01:30S 29°56' E 031°54'4 8.7
2018-Feb-14 01:00S 29°60' E 031°51'4 8.7
2018-Feb-14 00:30S 30°04' E 031°49'4 8.6
2018-Feb-14 00:00S 30°07' E 031°46'4 8.8
2018-Feb-13 23:30S 30°11' E 031°43'4 8.7
2018-Feb-13 23:00S 30°15' E 031°41'4 8.6
2018-Feb-13 22:30S 30°18' E 031°38'4 8.8
2018-Feb-13 22:00S 30°22' E 031°36'4 8.8
2018-Feb-13 21:30S 30°26' E 031°33'4 8.8
2018-Feb-13 21:00S 30°29' E 031°30'5 8.8
2018-Feb-13 20:27S 30°33' E 031°26'34 8.4
2018-Feb-13 16:25S 30°57' E 030°59'4 8.4
2018-Feb-13 16:00S 30°60' E 030°56'  
Track history (hours):
 
Tides and Currents Weather Stations Pressure Air Temp Water Temp Dewpoint Dewpoint Depression Visibility Wind Speed Wind Dir Waves Ship Positions

Cetus Star

Last reported at 2018-Feb-14 07:27 UTC. Time now 2018-Feb-23 08:58 UTC.
Position S 29°10' E 032°26'.
Warning: this ship's position is 9 days out of date.

Length 175 m; draft 9.9 m.

Type: Cargo ship. MMSI: 215720000.

Date/timePositionNaut miles runAvg speedWind from/ knotsBaromVisibWave heightAir tempDewpointWater temp
2018-Feb-14 07:27S 29°10' E 032°26'4 9.3
2018-Feb-14 06:59S 29°14' E 032°24'13 9.5
2018-Feb-14 05:40S 29°24' E 032°16'2 9.4
2018-Feb-14 05:24S 29°26' E 032°15'4 9.3
2018-Feb-14 05:00S 29°30' E 032°13'5 9.1
2018-Feb-14 04:29S 29°34' E 032°10'4 8.9
2018-Feb-14 04:00S 29°38' E 032°07'5 8.8
2018-Feb-14 03:27S 29°42' E 032°04'5 8.8
2018-Feb-14 02:55S 29°46' E 032°01'4 8.8
2018-Feb-14 02:30S 29°49' E 031°59'4 8.8
2018-Feb-14 02:00S 29°52' E 031°57'4 8.7
2018-Feb-14 01:30S 29°56' E 031°54'4 8.7
2018-Feb-14 01:00S 29°60' E 031°51'4 8.7
2018-Feb-14 00:30S 30°04' E 031°49'4 8.6
2018-Feb-14 00:00S 30°07' E 031°46'4 8.8
2018-Feb-13 23:30S 30°11' E 031°43'4 8.7
2018-Feb-13 23:00S 30°15' E 031°41'4 8.6
2018-Feb-13 22:30S 30°18' E 031°38'4 8.8
2018-Feb-13 22:00S 30°22' E 031°36'4 8.8
2018-Feb-13 21:30S 30°26' E 031°33'4 8.8
2018-Feb-13 21:00S 30°29' E 031°30'5 8.8
2018-Feb-13 20:27S 30°33' E 031°26'34 8.4
2018-Feb-13 16:25S 30°57' E 030°59'4 8.4
2018-Feb-13 16:00S 30°60' E 030°56'  

Dump ship's entire track history